Seboeis Plt, Maine
Current Conditions -  °F | °C
As of 9:30 AM on Sunday 25 Jan 2015 (Local Time) from KBGR Reporting Station
Light Snow Light Snow  
Wind Chill: -4°   Ceiling: 2800
Heat Index:   Visibility: 1mi
Dew Point: -3°   Wind: 12mph
Humidity: 75%   Direction: 270°W
Pressure: 29.37"   Gusts: 21mph
Location:  45.1976°N, 68.703°W
Report Text: KBGR 251430Z 27010G18KT 1SM R15/P6000FT -SN BKN028 OVC035 01/M03 A2937 RMK AO2 TWR VIS 1 1/2 SNB17 VIS DCRG RPDLY P0000 T00061033
Loading
Personal Weather Stations






























Interactive Weather Map New forecast layout! Learn more

10-Day Weather Forecast

Advertisements
Track Severe Weather on mobile